Time;durP1;ratioP1;P1;durP2;ratioP2;P2;SDS_P1;SDS_P2;PMS_P1;PMS_P2;Temp;Humidity;BMP_temperature;BMP_pressure;BME280_temperature;BME280_humidity;BME280_pressure;Samples;Min_cycle;Max_cycle;Signal;HPM_P1;HPM_P2
2023/03/17 00:01:23;;;;;;;12.50;11.90;;;10.20;7.00;;;;;;2614076;54;20130;-73
2023/03/17 00:07:15;;;;;;;11.93;11.40;;;10.30;6.40;;;;;;2614755;54;20162;-73
2023/03/17 00:17:07;;;;;;;12.33;11.70;;;10.30;6.40;;;;;;2614894;54;20491;-73
2023/03/17 00:23:03;;;;;;;11.87;11.37;;;10.30;6.50;;;;;;2614450;54;20479;-72
2023/03/17 00:28:53;;;;;;;12.27;11.67;;;10.30;6.30;;;;;;2613743;54;20438;-73
2023/03/17 00:34:40;;;;;;;12.03;11.43;;;10.00;8.30;;;;;;2613980;54;20395;-72
2023/03/17 00:40:29;;;;;;;12.10;11.40;;;9.80;9.90;;;;;;2614131;54;20155;-74
2023/03/17 00:52:45;;;;;;;12.97;12.17;;;9.40;14.40;;;;;;2612877;54;21326;-73
2023/03/17 00:58:33;;;;;;;12.10;11.30;;;9.50;14.00;;;;;;2613827;54;20974;-72
2023/03/17 01:04:22;;;;;;;11.80;11.10;;;9.70;11.90;;;;;;2614236;54;20398;-73
2023/03/17 01:10:14;;;;;;;12.43;11.77;;;9.70;11.90;;;;;;2613790;54;20358;-73
2023/03/17 01:19:24;;;;;;;12.30;11.60;;;10.00;8.30;;;;;;2613926;54;20415;-72
2023/03/17 01:25:12;;;;;;;12.20;11.63;;;9.80;8.70;;;;;;2615052;39;20555;-72
2023/03/17 01:31:01;;;;;;;11.73;11.03;;;10.00;7.60;;;;;;2614130;54;20383;-72
2023/03/17 01:36:49;;;;;;;13.53;12.70;;;10.00;8.60;;;;;;2613895;54;20886;-73
2023/03/17 01:42:38;;;;;;;11.57;11.03;;;10.00;7.30;;;;;;2614455;54;20262;-73
2023/03/17 01:48:27;;;;;;;12.53;11.80;;;10.00;6.30;;;;;;2613989;54;20363;-73
2023/03/17 02:00:49;;;;;;;11.87;11.27;;;10.00;6.20;;;;;;2612564;54;20367;-73
2023/03/17 02:06:37;;;;;;;12.63;11.73;;;9.90;7.00;;;;;;2614229;54;20452;-73
2023/03/17 02:12:27;;;;;;;11.90;11.20;;;9.90;7.50;;;;;;2614048;54;20210;-71
2023/03/17 02:21:50;;;;;;;12.37;11.77;;;9.90;7.80;;;;;;2614202;54;20427;-73
2023/03/17 02:27:43;;;;;;;11.97;11.37;;;9.90;8.60;;;;;;2614691;54;20394;-72
2023/03/17 02:33:30;;;;;;;12.20;11.50;;;9.70;9.40;;;;;;2614494;54;20395;-73
2023/03/17 02:39:18;;;;;;;12.30;11.60;;;9.70;9.40;;;;;;2613484;54;20371;-72
2023/03/17 02:45:07;;;;;;;12.47;11.40;;;9.80;8.70;;;;;;2614145;54;20138;-73
2023/03/17 02:50:55;;;;;;;12.43;11.43;;;9.90;8.70;;;;;;2613970;54;20414;-73
2023/03/17 02:56:43;;;;;;;12.63;12.03;;;9.60;9.30;;;;;;2612663;54;20162;-73
2023/03/17 03:02:31;;;;;;;11.60;10.90;;;9.50;10.10;;;;;;2613381;54;20130;-74
2023/03/17 03:08:18;;;;;;;12.10;11.50;;;9.50;10.60;;;;;;2613586;54;20134;-74
2023/03/17 03:14:07;;;;;;;11.87;11.27;;;9.30;11.00;;;;;;2614273;54;20905;-73
2023/03/17 03:17:10;;;;;;;11.50;10.90;;;9.20;12.20;;;;;;2614629;54;20434;-73
2023/03/17 03:19:36;;;;;;;12.77;12.07;;;9.30;12.20;;;;;;2613945;47;20402;-74
2023/03/17 03:25:24;;;;;;;11.33;10.83;;;9.30;12.30;;;;;;2614183;54;20958;-74
2023/03/17 03:31:12;;;;;;;11.30;10.70;;;9.20;14.60;;;;;;2614803;54;20126;-73
2023/03/17 03:37:00;;;;;;;11.70;10.93;;;9.00;15.20;;;;;;2614778;54;20379;-74
2023/03/17 03:42:49;;;;;;;11.80;11.10;;;8.90;14.90;;;;;;2614886;39;20450;-73
2023/03/17 03:48:36;;;;;;;11.33;10.73;;;9.00;15.30;;;;;;2614547;54;20131;-73
2023/03/17 03:54:24;;;;;;;12.20;11.50;;;9.00;15.00;;;;;;2614427;54;20146;-73
2023/03/17 04:00:13;;;;;;;12.50;11.77;;;9.20;13.20;;;;;;2613841;54;20652;-68
2023/03/17 04:06:02;;;;;;;10.63;10.07;;;9.10;12.60;;;;;;2614495;46;20386;-70
2023/03/17 04:11:49;;;;;;;12.23;11.50;;;9.00;13.10;;;;;;2613782;54;20379;-68
2023/03/17 04:21:42;;;;;;;12.07;11.37;;;9.00;15.00;;;;;;2613799;54;20411;-69
2023/03/17 04:27:30;;;;;;;12.77;11.90;;;8.60;17.00;;;;;;2614275;54;20415;-69
2023/03/17 04:33:19;;;;;;;12.30;11.70;;;8.80;16.00;;;;;;2614491;54;20395;-69
2023/03/17 04:39:06;;;;;;;12.73;11.73;;;9.20;13.40;;;;;;2613987;54;20372;-69
2023/03/17 04:44:54;;;;;;;12.17;11.50;;;8.90;14.70;;;;;;2614546;54;20154;-68
2023/03/17 04:50:41;;;;;;;12.10;11.50;;;9.00;16.10;;;;;;2614872;54;20130;-69
2023/03/17 04:56:29;;;;;;;11.83;11.27;;;9.10;14.40;;;;;;2614561;54;20127;-68
2023/03/17 05:02:17;;;;;;;11.60;11.00;;;9.20;12.70;;;;;;2614195;54;20158;-69
2023/03/17 05:08:05;;;;;;;12.67;11.97;;;9.20;13.10;;;;;;2614665;39;20492;-69
2023/03/17 05:13:53;;;;;;;12.40;11.70;;;9.20;12.50;;;;;;2614393;54;20146;-69
2023/03/17 05:17:11;;;;;;;11.87;11.07;;;9.00;13.50;;;;;;2614678;39;20494;-69
2023/03/17 05:19:36;;;;;;;12.80;12.10;;;9.00;14.20;;;;;;2614020;54;20178;-69
2023/03/17 05:25:24;;;;;;;11.53;10.90;;;9.00;13.90;;;;;;2614477;54;20296;-68
2023/03/17 05:31:12;;;;;;;12.33;11.73;;;9.30;12.40;;;;;;2615536;31;20598;-70
2023/03/17 05:37:00;;;;;;;13.40;12.60;;;9.20;12.50;;;;;;2614985;54;20258;-68
2023/03/17 05:42:49;;;;;;;11.80;11.30;;;9.10;12.80;;;;;;2612668;54;20211;-69
2023/03/17 05:48:37;;;;;;;12.70;11.70;;;9.30;12.10;;;;;;2613826;54;20910;-69
2023/03/17 05:54:25;;;;;;;12.00;11.40;;;9.20;12.00;;;;;;2612783;54;20149;-69
2023/03/17 06:00:15;;;;;;;13.63;12.93;;;9.20;11.70;;;;;;2612389;54;20162;-69
2023/03/17 06:06:03;;;;;;;13.13;12.37;;;9.10;13.00;;;;;;2613801;54;20403;-69
2023/03/17 06:11:50;;;;;;;13.30;12.50;;;9.40;12.60;;;;;;2613836;54;20366;-70
2023/03/17 06:21:43;;;;;;;12.97;12.27;;;9.30;12.40;;;;;;2614192;54;20949;-74
2023/03/17 06:27:31;;;;;;;13.23;12.33;;;9.50;11.70;;;;;;2612408;54;20960;-70
2023/03/17 06:33:20;;;;;;;12.60;11.90;;;9.60;11.20;;;;;;2611603;39;20538;-69
2023/03/17 06:39:08;;;;;;;13.40;12.70;;;10.10;8.50;;;;;;2611694;54;20375;-68
2023/03/17 06:44:56;;;;;;;12.37;11.67;;;10.60;5.90;;;;;;2609198;39;20222;-71
2023/03/17 06:50:46;;;;;;;13.50;12.80;;;11.00;4.20;;;;;;2605926;54;20632;-69
2023/03/17 06:56:34;;;;;;;14.17;13.07;;;11.20;3.40;;;;;;2610047;54;20367;-69
2023/03/17 07:02:21;;;;;;;12.50;11.80;;;11.60;1.60;;;;;;2609731;54;20165;-69
2023/03/17 07:08:10;;;;;;;14.03;13.33;;;11.90;1.00;;;;;;2610596;54;20243;-70
2023/03/17 07:13:58;;;;;;;14.10;13.30;;;12.60;1.00;;;;;;2610911;54;20458;-70
2023/03/17 07:17:02;;;;;;;12.80;12.20;;;12.40;1.00;;;;;;2608283;54;20419;-70
2023/03/17 07:19:27;;;;;;;14.20;13.50;;;12.90;1.00;;;;;;2610866;54;20197;-69
2023/03/17 07:25:16;;;;;;;13.80;12.70;;;13.20;1.00;;;;;;2611288;54;20541;-69
2023/03/17 07:31:07;;;;;;;13.70;12.90;;;13.30;1.00;;;;;;2612219;54;20957;-69
2023/03/17 07:36:55;;;;;;;13.40;12.60;;;14.10;1.00;;;;;;2612725;54;20415;-69
2023/03/17 07:42:44;;;;;;;14.97;13.93;;;13.80;1.00;;;;;;2610459;54;20430;-69
2023/03/17 07:48:32;;;;;;;13.80;12.90;;;14.70;1.00;;;;;;2609347;54;20551;-68
2023/03/17 07:54:20;;;;;;;14.80;14.10;;;15.20;1.00;;;;;;2610110;54;20249;-70
2023/03/17 08:00:09;;;;;;;13.83;13.03;;;14.80;1.00;;;;;;2609848;54;20126;-69
2023/03/17 08:05:58;;;;;;;13.80;13.03;;;14.80;1.00;;;;;;2612817;54;20398;-70
2023/03/17 08:11:46;;;;;;;15.17;13.97;;;14.20;1.00;;;;;;2614423;39;20866;-69
2023/03/17 08:21:45;;;;;;;12.77;11.97;;;14.80;1.00;;;;;;2614722;54;20383;-73
2023/03/17 08:27:33;;;;;;;12.40;11.80;;;14.30;1.00;;;;;;2613613;54;20402;-73
2023/03/17 08:33:21;;;;;;;13.63;12.40;;;14.70;1.00;;;;;;2612049;54;20146;-72
2023/03/17 08:39:09;;;;;;;13.33;12.57;;;15.20;1.00;;;;;;2614398;31;20650;-72
2023/03/17 08:44:56;;;;;;;14.33;13.60;;;15.50;1.00;;;;;;2611350;54;20151;-73
2023/03/17 08:50:44;;;;;;;13.97;13.03;;;16.00;1.00;;;;;;2612323;46;20149;-72
2023/03/17 08:56:33;;;;;;;12.97;12.17;;;15.90;1.00;;;;;;2613767;54;20427;-72
2023/03/17 08:59:44;;;;;;;12.70;11.90;;;15.60;1.00;;;;;;2613233;54;20511;-73
2023/03/17 09:02:11;;;;;;;13.33;12.43;;;15.70;1.00;;;;;;2613794;54;20371;-73
2023/03/17 09:07:58;;;;;;;14.47;13.67;;;16.60;1.00;;;;;;2612070;54;20391;-68
2023/03/17 09:13:47;;;;;;;13.20;12.60;;;16.20;1.00;;;;;;2613561;54;20267;-69
2023/03/17 09:19:34;;;;;;;13.80;13.10;;;16.70;1.00;;;;;;2612569;54;20177;-69
2023/03/17 09:25:22;;;;;;;15.73;14.87;;;15.70;1.00;;;;;;2613448;54;20684;-69
2023/03/17 09:31:11;;;;;;;13.43;12.83;;;16.50;1.00;;;;;;2612624;54;20408;-70
2023/03/17 09:36:58;;;;;;;13.73;12.93;;;17.60;1.00;;;;;;2613372;54;20382;-70
2023/03/17 10:02:30;;;;;;;13.23;12.57;;;19.90;1.00;;;;;;2610832;39;20891;-69
2023/03/17 10:08:33;;;;;;;14.23;13.23;;;19.80;1.00;;;;;;2614535;31;20872;-69
2023/03/17 10:24:10;;;;;;;12.87;12.23;;;19.50;1.00;;;;;;2611718;54;20504;-69
2023/03/17 10:29:57;;;;;;;15.93;14.57;;;19.30;1.00;;;;;;2613714;54;20419;-67
2023/03/17 10:35:46;;;;;;;14.07;13.27;;;19.00;1.00;;;;;;2613153;46;20167;-69
2023/03/17 10:41:38;;;;;;;14.80;14.10;;;18.20;1.00;;;;;;2613274;39;20877;-69
2023/03/17 10:47:29;;;;;;;13.87;13.10;;;19.80;1.00;;;;;;2613117;54;20483;-69
2023/03/17 10:53:31;;;;;;;14.43;13.63;;;19.70;1.00;;;;;;2611627;54;20407;-69
2023/03/17 10:59:36;;;;;;;14.80;14.00;;;18.00;1.00;;;;;;2609961;39;20766;-69
2023/03/17 11:05:26;;;;;;;13.80;13.00;;;18.50;1.00;;;;;;2611166;46;20385;-68
2023/03/17 11:18:58;;;;;;;13.43;12.73;;;19.80;1.00;;;;;;2610825;54;20444;-68
2023/03/17 11:28:24;;;;;;;13.97;13.10;;;20.30;1.00;;;;;;2609949;54;20402;-69
2023/03/17 11:47:22;;;;;;;12.97;12.37;;;20.60;1.00;;;;;;2614566;54;20376;-68
2023/03/17 11:59:51;;;;;;;13.43;12.73;;;21.90;1.00;;;;;;2612723;54;20386;-68
2023/03/17 12:05:41;;;;;;;14.60;13.57;;;20.70;1.00;;;;;;2612745;54;20407;-68
2023/03/17 12:11:33;;;;;;;13.43;12.67;;;20.70;1.00;;;;;;2612297;54;21441;-69
2023/03/17 12:47:20;;;;;;;13.60;13.00;;;19.70;1.00;;;;;;2613000;54;20518;-70
2023/03/17 13:04:03;;;;;;;13.90;13.20;;;20.40;1.00;;;;;;2613963;54;20415;-70
2023/03/17 13:09:54;;;;;;;13.40;12.70;;;19.90;1.00;;;;;;2614182;54;20395;-70
2023/03/17 13:12:57;;;;;;;13.00;12.40;;;19.40;1.00;;;;;;2613964;54;21201;-71
2023/03/17 13:15:36;;;;;;;14.03;13.33;;;19.40;1.00;;;;;;2613575;54;20450;-70
2023/03/17 13:21:24;;;;;;;14.43;13.63;;;20.60;1.00;;;;;;2614297;54;20395;-70
2023/03/17 13:27:29;;;;;;;13.20;12.60;;;21.40;1.00;;;;;;2613854;54;20174;-69
2023/03/17 13:30:27;;;;;;;14.07;13.30;;;21.00;1.00;;;;;;2614070;54;20415;-69
2023/03/17 13:36:15;;;;;;;12.80;12.17;;;19.80;1.00;;;;;;2614686;54;20371;-69
2023/03/17 13:48:36;;;;;;;13.27;12.40;;;20.00;1.00;;;;;;2613696;54;20375;-70
2023/03/17 13:54:27;;;;;;;12.40;11.90;;;20.30;1.00;;;;;;2613933;54;20367;-69
2023/03/17 14:00:21;;;;;;;13.30;12.50;;;20.50;1.00;;;;;;2612950;46;20390;-69
2023/03/17 14:06:11;;;;;;;13.73;13.03;;;20.70;1.00;;;;;;2614406;54;20435;-69
2023/03/17 14:12:04;;;;;;;13.60;13.00;;;20.10;1.00;;;;;;2614097;54;20419;-69
2023/03/17 14:24:32;;;;;;;14.37;13.67;;;19.60;1.00;;;;;;2612582;54;20503;-70
2023/03/17 14:30:23;;;;;;;15.40;14.60;;;19.60;1.00;;;;;;2609922;54;20419;-69
2023/03/17 14:36:12;;;;;;;14.03;13.23;;;20.20;1.00;;;;;;2612160;39;20684;-70
2023/03/17 14:42:03;;;;;;;14.17;13.43;;;19.40;1.00;;;;;;2610984;31;20826;-69
2023/03/17 14:47:50;;;;;;;13.00;12.40;;;18.70;1.00;;;;;;2610152;39;20877;-70
2023/03/17 14:53:43;;;;;;;15.67;14.87;;;18.90;1.00;;;;;;2612287;54;20386;-70
2023/03/17 14:59:35;;;;;;;15.23;14.20;;;18.90;1.00;;;;;;2612233;54;20366;-70
2023/03/17 15:18:29;;;;;;;14.10;13.40;;;18.80;1.00;;;;;;2612336;39;20834;-70
2023/03/17 15:24:35;;;;;;;13.03;12.30;;;18.70;1.00;;;;;;2610988;39;20651;-69
2023/03/17 15:30:23;;;;;;;13.53;12.93;;;18.90;1.00;;;;;;2610244;54;20503;-70
2023/03/17 15:36:16;;;;;;;14.57;13.53;;;18.10;1.00;;;;;;2613210;54;20439;-69
2023/03/17 15:42:04;;;;;;;12.97;12.37;;;18.00;1.00;;;;;;2613581;54;20398;-70
2023/03/17 15:47:52;;;;;;;13.90;13.10;;;17.80;1.00;;;;;;2613554;54;20395;-69
2023/03/17 15:53:39;;;;;;;13.63;12.83;;;17.80;1.00;;;;;;2611271;54;20137;-69
2023/03/17 15:59:27;;;;;;;12.90;12.30;;;17.50;1.00;;;;;;2610278;54;20683;-70
2023/03/17 16:05:18;;;;;;;13.53;12.93;;;17.40;1.00;;;;;;2613596;54;20126;-69
2023/03/17 16:17:39;;;;;;;13.70;13.00;;;17.20;1.00;;;;;;2612106;54;20493;-70
2023/03/17 16:23:32;;;;;;;12.77;11.83;;;17.10;1.00;;;;;;2612245;39;21033;-71
2023/03/17 16:32:43;;;;;;;13.10;12.40;;;16.80;1.00;;;;;;2613077;54;20929;-70
2023/03/17 16:38:32;;;;;;;12.63;12.07;;;16.70;1.00;;;;;;2612983;54;20368;-70
2023/03/17 16:44:20;;;;;;;13.63;12.70;;;16.50;1.00;;;;;;2613214;54;20369;-70
2023/03/17 16:50:16;;;;;;;14.50;13.30;;;16.30;1.00;;;;;;2613028;54;21012;-70
2023/03/17 17:02:18;;;;;;;14.13;13.53;;;15.90;1.00;;;;;;2614506;54;20516;-70
2023/03/17 17:08:06;;;;;;;13.83;13.13;;;15.90;1.00;;;;;;2614544;54;20572;-70
2023/03/17 17:13:53;;;;;;;14.50;13.80;;;15.80;1.00;;;;;;2614654;54;20158;-70
2023/03/17 17:19:41;;;;;;;12.93;12.13;;;15.70;1.00;;;;;;2610386;54;20170;-69
2023/03/17 17:25:29;;;;;;;13.63;12.83;;;15.60;1.00;;;;;;2611550;54;20138;-70
2023/03/17 17:28:18;;;;;;;13.87;13.17;;;15.40;1.00;;;;;;2612532;46;20412;-70
2023/03/17 17:30:46;;;;;;;12.97;12.30;;;15.40;1.00;;;;;;2610029;54;20491;-70
2023/03/17 17:36:34;;;;;;;23.77;22.00;;;15.50;1.00;;;;;;2612439;54;20936;-70
2023/03/17 17:42:21;;;;;;;25.87;24.07;;;15.30;1.00;;;;;;2614599;54;20219;-69
2023/03/17 17:48:10;;;;;;;13.70;12.80;;;15.20;1.00;;;;;;2614215;54;20110;-69
2023/03/17 17:53:58;;;;;;;13.60;12.90;;;15.10;1.00;;;;;;2613942;54;20390;-70
2023/03/17 17:59:45;;;;;;;13.10;12.10;;;14.90;1.00;;;;;;2613074;54;20399;-69
2023/03/17 18:05:34;;;;;;;13.70;12.77;;;14.90;1.00;;;;;;2612117;54;20159;-69
2023/03/17 18:11:21;;;;;;;13.50;12.70;;;14.80;1.00;;;;;;2613386;54;20384;-69
2023/03/17 18:17:09;;;;;;;13.90;12.83;;;14.70;1.00;;;;;;2612784;39;20524;-70
2023/03/17 18:22:57;;;;;;;11.50;10.90;;;14.60;1.00;;;;;;2613136;54;20130;-69
2023/03/17 18:32:44;;;;;;;12.60;11.90;;;14.50;1.40;;;;;;2612770;54;20402;-69
2023/03/17 18:38:32;;;;;;;13.30;12.50;;;14.40;2.70;;;;;;2611365;54;20430;-70
2023/03/17 18:44:22;;;;;;;12.23;11.53;;;14.50;2.60;;;;;;2612855;54;20364;-70
2023/03/17 18:50:12;;;;;;;13.90;12.90;;;14.40;3.30;;;;;;2613337;54;20399;-70
2023/03/17 18:56:01;;;;;;;14.00;13.10;;;14.30;3.70;;;;;;2608991;54;20402;-70
2023/03/17 19:01:49;;;;;;;14.00;13.30;;;14.30;5.10;;;;;;2613661;54;20354;-71
2023/03/17 19:07:37;;;;;;;10.10;9.40;;;13.90;19.70;;;;;;2613423;39;20826;-70
2023/03/17 19:13:25;;;;;;;9.60;9.10;;;13.40;37.80;;;;;;2613690;46;20374;-70
2023/03/17 19:19:13;;;;;;;9.90;9.20;;;13.20;41.90;;;;;;2611949;54;20129;-69
2023/03/17 19:25:03;;;;;;;11.27;9.07;;;13.20;44.90;;;;;;2612912;54;20114;-69
2023/03/17 19:28:13;;;;;;;9.97;9.17;;;13.20;42.30;;;;;;2613567;39;20771;-70
2023/03/17 19:30:39;;;;;;;10.97;9.87;;;13.30;44.00;;;;;;2612404;54;20376;-70
2023/03/17 19:36:33;;;;;;;12.03;10.87;;;13.20;39.20;;;;;;2614125;39;20569;-70
2023/03/17 19:42:21;;;;;;;12.97;11.83;;;13.40;35.80;;;;;;2611403;54;20417;-69
2023/03/17 19:48:09;;;;;;;11.67;10.90;;;13.40;31.50;;;;;;2612144;54;20130;-70
2023/03/17 19:53:56;;;;;;;11.57;10.70;;;13.50;27.60;;;;;;2613345;54;20134;-70
2023/03/17 19:59:44;;;;;;;12.13;11.40;;;13.50;23.40;;;;;;2612683;54;20637;-70
2023/03/17 20:05:32;;;;;;;11.40;10.67;;;13.50;22.20;;;;;;2614377;39;20838;-70
2023/03/17 20:11:20;;;;;;;12.10;11.40;;;13.50;20.50;;;;;;2613609;46;20130;-71
2023/03/17 20:17:07;;;;;;;11.97;11.17;;;13.50;19.60;;;;;;2614551;54;20130;-70
2023/03/17 20:22:55;;;;;;;13.93;11.23;;;13.30;20.60;;;;;;2614411;54;20169;-70
2023/03/17 20:32:45;;;;;;;11.30;10.70;;;13.50;17.70;;;;;;2613381;54;20935;-69
2023/03/17 20:38:37;;;;;;;11.97;10.93;;;13.60;14.90;;;;;;2613919;54;20382;-70
2023/03/17 20:44:25;;;;;;;11.47;10.77;;;13.70;15.00;;;;;;2612832;54;20893;-71
2023/03/17 20:50:13;;;;;;;11.90;11.20;;;13.90;12.50;;;;;;2614497;39;20546;-70
2023/03/17 20:56:01;;;;;;;11.50;10.90;;;14.00;11.50;;;;;;2614436;54;20367;-70
2023/03/17 21:01:49;;;;;;;12.50;11.70;;;13.80;18.10;;;;;;2613077;54;20127;-70
2023/03/17 21:07:37;;;;;;;10.50;9.93;;;13.60;22.70;;;;;;2614284;54;20407;-71
2023/03/17 21:13:24;;;;;;;11.33;10.63;;;13.50;25.00;;;;;;2613952;54;20230;-71
2023/03/17 21:19:14;;;;;;;11.87;10.97;;;13.40;33.70;;;;;;2612071;47;20142;-70
2023/03/17 21:25:03;;;;;;;12.03;10.90;;;13.00;64.30;;;;;;2614975;54;20407;-70
2023/03/17 21:28:14;;;;;;;10.67;9.87;;;12.80;80.30;;;;;;2613200;54;20408;-70
2023/03/17 21:30:43;;;;;;;10.40;9.70;;;12.80;78.50;;;;;;2614414;54;20445;-70
2023/03/17 21:36:31;;;;;;;8.67;8.07;;;12.70;90.50;;;;;;2612683;54;20367;-72
2023/03/17 21:42:19;;;;;;;9.53;8.83;;;12.70;93.80;;;;;;2613447;54;20134;-71
2023/03/17 21:48:07;;;;;;;10.17;8.80;;;12.80;93.50;;;;;;2614354;54;20940;-71
2023/03/17 21:53:56;;;;;;;11.27;10.27;;;12.90;90.80;;;;;;2613114;39;20391;-70
2023/03/17 21:59:44;;;;;;;9.70;8.90;;;12.80;92.30;;;;;;2614160;54;20351;-70
2023/03/17 22:05:33;;;;;;;9.50;8.80;;;12.80;92.70;;;;;;2613858;54;20371;-70
2023/03/17 22:11:21;;;;;;;10.17;9.40;;;12.80;93.40;;;;;;2614474;54;20367;-71
2023/03/17 22:17:08;;;;;;;10.43;9.60;;;12.70;95.70;;;;;;2612182;54;21234;-70
2023/03/17 22:22:56;;;;;;;11.17;9.70;;;12.70;96.90;;;;;;2606742;46;20146;-70
2023/03/17 22:32:46;;;;;;;9.13;8.60;;;12.80;95.70;;;;;;2612078;54;20475;-71
2023/03/17 22:38:34;;;;;;;9.97;9.17;;;12.80;99.90;;;;;;2611617;54;20376;-71
2023/03/17 22:44:22;;;;;;;9.50;8.90;;;12.80;99.90;;;;;;2613471;54;20149;-70
2023/03/17 22:50:10;;;;;;;8.50;7.70;;;12.60;99.90;;;;;;2611132;54;20238;-70
2023/03/17 22:55:59;;;;;;;8.90;8.07;;;12.60;99.90;;;;;;2611642;54;20363;-71
2023/03/17 23:01:47;;;;;;;9.07;7.30;;;12.50;99.90;;;;;;2612571;54;20430;-70
2023/03/17 23:07:36;;;;;;;11.83;7.33;;;12.40;99.90;;;;;;2610996;54;20440;-70
2023/03/17 23:13:23;;;;;;;7.60;6.73;;;12.30;99.90;;;;;;2612604;54;20371;-71
2023/03/17 23:19:11;;;;;;;11.03;7.37;;;12.10;99.90;;;;;;2612871;54;20130;-70
2023/03/17 23:25:00;;;;;;;7.30;6.30;;;12.00;99.90;;;;;;2612288;54;20126;-70
2023/03/17 23:28:15;;;;;;;8.00;7.10;;;12.00;99.90;;;;;;2611281;54;20480;-71
2023/03/17 23:30:42;;;;;;;7.33;6.27;;;12.10;99.90;;;;;;2611363;54;20383;-70
2023/03/17 23:36:30;;;;;;;8.33;6.17;;;12.10;99.90;;;;;;2612679;54;20459;-71
2023/03/17 23:42:17;;;;;;;10.90;6.40;;;12.10;99.90;;;;;;2612050;54;20118;-70
2023/03/17 23:48:09;;;;;;;6.90;5.90;;;12.00;99.90;;;;;;2611986;54;20130;-70
2023/03/17 23:53:57;;;;;;;9.23;6.03;;;12.00;99.90;;;;;;2613931;54;20513;-70
2023/03/17 23:59:45;;;;;;;7.17;6.17;;;12.00;99.90;;;;;;2610922;54;20412;-70
